Time;durP1;ratioP1;P1;durP2;ratioP2;P2;SDS_P1;SDS_P2;PMS_P1;PMS_P2;Temp;Humidity;BMP_temperature;BMP_pressure;BME280_temperature;BME280_humidity;BME280_pressure;Samples;Min_cycle;Max_cycle;Signal;HPM_P1;HPM_P2
2022/08/25 00:02:11;;;;;;;30.98;27.25;;;22.30;99.90;;;;;;5014847;28;20046;-63
2022/08/25 00:04:36;;;;;;;33.35;27.52;;;22.10;99.90;;;;;;5013378;28;20054;-63
2022/08/25 00:07:03;;;;;;;39.58;27.90;;;22.30;99.90;;;;;;5012539;28;20517;-63
2022/08/25 00:09:31;;;;;;;32.05;27.20;;;22.10;99.90;;;;;;5014106;28;20395;-63
2022/08/25 00:11:57;;;;;;;32.30;28.02;;;22.10;99.90;;;;;;5013115;28;20056;-63
2022/08/25 00:14:30;;;;;;;37.22;27.90;;;22.10;99.90;;;;;;5012766;28;20072;-63
2022/08/25 00:16:56;;;;;;;34.58;30.23;;;22.40;99.90;;;;;;4996820;28;20092;-63
2022/08/25 00:19:26;;;;;;;32.28;28.52;;;22.20;99.90;;;;;;5012917;28;20052;-63
2022/08/25 00:21:52;;;;;;;34.05;28.52;;;22.20;99.90;;;;;;5014089;28;20128;-63
2022/08/25 00:24:19;;;;;;;38.33;30.40;;;22.30;99.90;;;;;;5003918;28;20118;-63
2022/08/25 00:26:47;;;;;;;36.83;29.05;;;22.20;99.90;;;;;;5012423;28;20052;-63
2022/08/25 00:29:13;;;;;;;34.05;29.15;;;22.30;99.90;;;;;;5014304;28;20044;-63
2022/08/25 00:31:40;;;;;;;32.58;29.23;;;22.10;99.90;;;;;;5013066;28;20122;-63
2022/08/25 00:34:09;;;;;;;38.72;31.08;;;22.20;99.90;;;;;;5011924;28;20029;-63
2022/08/25 00:36:35;;;;;;;35.92;29.83;;;22.10;99.90;;;;;;5003553;28;20033;-63
2022/08/25 00:39:01;;;;;;;41.42;29.63;;;22.30;99.90;;;;;;5013340;28;20041;-63
2022/08/25 00:41:27;;;;;;;35.17;28.40;;;22.40;99.90;;;;;;5013273;28;20049;-63
2022/08/25 00:44:03;;;;;;;36.97;28.27;;;22.40;99.90;;;;;;5012755;28;20037;-63
2022/08/25 00:46:49;;;;;;;36.90;28.23;;;22.20;99.90;;;;;;5012961;28;20561;-63
2022/08/25 00:49:36;;;;;;;31.85;27.75;;;22.40;99.90;;;;;;5008762;28;20553;-63
2022/08/25 00:52:04;;;;;;;32.45;28.20;;;22.30;99.90;;;;;;5004250;28;20037;-63
2022/08/25 00:54:36;;;;;;;35.17;28.33;;;22.20;99.90;;;;;;5008572;28;20034;-63
2022/08/25 00:57:05;;;;;;;35.08;27.80;;;22.00;99.90;;;;;;5012789;28;20037;-63
2022/08/25 00:59:31;;;;;;;35.17;29.77;;;22.10;99.90;;;;;;5012257;28;20125;-63
2022/08/25 01:01:57;;;;;;;33.80;29.88;;;21.80;99.90;;;;;;5001391;28;20180;-63
2022/08/25 01:04:24;;;;;;;34.47;29.08;;;21.90;99.90;;;;;;5012812;28;20037;-63
2022/08/25 01:06:51;;;;;;;34.33;30.63;;;21.80;99.90;;;;;;5012473;28;20042;-63
2022/08/25 01:09:18;;;;;;;40.00;29.95;;;22.00;99.90;;;;;;5012715;28;20165;-63
2022/08/25 01:11:45;;;;;;;31.67;27.85;;;21.80;99.90;;;;;;5013475;28;20038;-63
2022/08/25 01:14:15;;;;;;;35.15;28.77;;;22.00;99.90;;;;;;5013984;28;20038;-63
2022/08/25 01:16:42;;;;;;;31.83;28.55;;;21.80;99.90;;;;;;5012433;28;20566;-63
2022/08/25 01:19:10;;;;;;;30.38;27.02;;;21.80;99.90;;;;;;5011887;28;20117;-63
2022/08/25 01:21:39;;;;;;;32.10;26.70;;;21.90;99.90;;;;;;5012750;28;20041;-63
2022/08/25 01:24:05;;;;;;;32.63;24.33;;;21.90;99.90;;;;;;5011534;28;20041;-63
2022/08/25 01:26:33;;;;;;;31.63;25.15;;;22.10;99.90;;;;;;5013412;28;20402;-63
2022/08/25 01:31:45;;;;;;;31.05;21.77;;;22.20;99.90;;;;;;5013441;28;20054;-63
2022/08/25 01:34:14;;;;;;;27.33;21.20;;;22.10;99.90;;;;;;5012662;28;20046;-64
2022/08/25 01:36:41;;;;;;;27.25;19.52;;;22.20;99.90;;;;;;5013067;28;20030;-63
2022/08/25 01:39:08;;;;;;;23.77;17.08;;;22.30;99.90;;;;;;4999013;28;20053;-63
2022/08/25 01:41:33;;;;;;;26.70;18.92;;;22.30;99.90;;;;;;4992162;28;20181;-63
2022/08/25 01:44:01;;;;;;;23.15;18.25;;;22.30;99.90;;;;;;5008911;28;20120;-63
2022/08/25 01:46:27;;;;;;;26.52;16.90;;;22.40;99.90;;;;;;5012982;28;20058;-63
2022/08/25 01:48:52;;;;;;;22.42;15.70;;;22.50;99.90;;;;;;5011336;28;20380;-63
2022/08/25 01:51:22;;;;;;;21.15;14.88;;;22.60;99.90;;;;;;5011611;28;20045;-63
2022/08/25 01:53:48;;;;;;;24.90;14.27;;;22.70;99.90;;;;;;5012207;28;20129;-63
2022/08/25 01:56:15;;;;;;;18.48;13.45;;;22.60;99.90;;;;;;5012598;28;20474;-63
2022/08/25 01:58:45;;;;;;;16.00;13.05;;;22.60;99.90;;;;;;5011233;28;20065;-63
2022/08/25 02:01:16;;;;;;;20.15;13.00;;;22.60;99.90;;;;;;4993692;28;20042;-63
2022/08/25 02:03:44;;;;;;;22.52;13.35;;;22.70;99.90;;;;;;5005388;28;20112;-63
2022/08/25 02:06:11;;;;;;;25.45;13.00;;;22.70;99.90;;;;;;5012583;28;20037;-63
2022/08/25 02:08:37;;;;;;;22.42;15.00;;;22.60;99.90;;;;;;5009960;28;20084;-63
2022/08/25 02:11:03;;;;;;;17.83;13.27;;;22.60;99.90;;;;;;5011601;28;20101;-63
2022/08/25 02:13:29;;;;;;;15.23;13.20;;;22.50;99.90;;;;;;5012712;28;20049;-63
2022/08/25 02:15:57;;;;;;;19.20;13.15;;;22.40;99.90;;;;;;5011369;28;20113;-63
2022/08/25 02:18:23;;;;;;;20.92;14.52;;;22.40;99.90;;;;;;5010815;28;20042;-63
2022/08/25 02:20:49;;;;;;;18.88;13.63;;;22.30;99.90;;;;;;5012694;28;20126;-63
2022/08/25 02:23:15;;;;;;;19.73;14.00;;;22.20;99.90;;;;;;5012318;28;20126;-63
2022/08/25 02:25:41;;;;;;;19.70;13.90;;;22.30;99.90;;;;;;5007509;28;20078;-63
2022/08/25 02:28:07;;;;;;;20.85;13.95;;;22.20;99.90;;;;;;4998107;28;20033;-63
2022/08/25 02:30:34;;;;;;;24.23;14.45;;;22.20;99.90;;;;;;5012169;28;20045;-64
2022/08/25 02:33:00;;;;;;;16.58;13.80;;;22.10;99.90;;;;;;5010873;28;20048;-63
2022/08/25 02:35:26;;;;;;;22.63;14.95;;;22.00;99.90;;;;;;5012063;28;20492;-63
2022/08/25 02:37:52;;;;;;;20.73;14.10;;;21.90;99.90;;;;;;5010804;28;20045;-63
2022/08/25 02:40:20;;;;;;;22.50;16.05;;;21.90;99.90;;;;;;5011861;28;20403;-63
2022/08/25 02:42:50;;;;;;;23.48;16.23;;;21.80;99.90;;;;;;5009837;28;20065;-63
2022/08/25 02:45:17;;;;;;;20.48;15.68;;;21.70;99.90;;;;;;5012151;28;20045;-63
2022/08/25 02:47:44;;;;;;;21.95;15.80;;;21.70;99.90;;;;;;5009800;28;20042;-63
2022/08/25 02:50:10;;;;;;;23.52;16.48;;;21.60;99.90;;;;;;5002744;28;20407;-63
2022/08/25 02:52:36;;;;;;;20.73;16.42;;;21.60;99.90;;;;;;5011979;28;20034;-63
2022/08/25 02:55:05;;;;;;;24.85;16.40;;;21.50;99.90;;;;;;5011827;28;20088;-63
2022/08/25 02:57:31;;;;;;;19.73;15.88;;;21.40;99.90;;;;;;5011203;28;20148;-63
2022/08/25 02:59:57;;;;;;;21.20;17.33;;;21.40;99.90;;;;;;5006907;28;20058;-63
2022/08/25 03:02:24;;;;;;;26.02;16.45;;;21.70;99.90;;;;;;4990965;28;20050;-63
2022/08/25 03:04:50;;;;;;;20.35;15.05;;;21.20;99.90;;;;;;5011287;28;20472;-63
2022/08/25 03:07:17;;;;;;;16.45;13.75;;;21.20;99.90;;;;;;5011572;28;20026;-63
2022/08/25 03:09:43;;;;;;;22.83;15.57;;;21.10;99.90;;;;;;5010945;28;20128;-63
2022/08/25 03:12:10;;;;;;;16.75;14.52;;;21.20;99.90;;;;;;5010697;28;20113;-63
2022/08/25 03:14:36;;;;;;;19.98;14.57;;;21.20;99.90;;;;;;5011739;28;20403;-63
2022/08/25 03:17:02;;;;;;;21.35;14.65;;;21.10;99.90;;;;;;5010886;28;20038;-63
2022/08/25 03:19:27;;;;;;;18.45;14.38;;;21.10;99.90;;;;;;5006736;28;20501;-63
2022/08/25 03:21:55;;;;;;;18.13;13.65;;;21.10;99.90;;;;;;5011665;28;20073;-63
2022/08/25 03:24:22;;;;;;;20.77;13.52;;;21.00;99.90;;;;;;5011598;28;20124;-63
2022/08/25 03:26:53;;;;;;;14.93;13.02;;;21.00;99.90;;;;;;5011016;28;20116;-63
2022/08/25 03:29:26;;;;;;;18.65;13.32;;;20.90;99.90;;;;;;5010493;28;20044;-63
2022/08/25 03:31:54;;;;;;;16.70;13.23;;;21.00;99.90;;;;;;5014076;28;20455;-63
2022/08/25 03:34:21;;;;;;;21.25;12.70;;;21.00;99.90;;;;;;4998637;28;20046;-63
2022/08/25 03:36:50;;;;;;;17.98;12.45;;;21.00;99.90;;;;;;4995769;28;20038;-63
2022/08/25 03:39:17;;;;;;;16.98;12.57;;;20.90;99.90;;;;;;5011403;28;20038;-63
2022/08/25 03:41:44;;;;;;;19.13;11.68;;;20.90;99.90;;;;;;5015478;28;20034;-63
2022/08/25 03:44:10;;;;;;;18.08;11.55;;;20.90;99.90;;;;;;5014114;28;20488;-63
2022/08/25 03:46:44;;;;;;;16.90;11.32;;;20.80;99.90;;;;;;5013856;28;20037;-63
2022/08/25 03:49:13;;;;;;;20.95;10.88;;;20.90;99.90;;;;;;5010199;28;20129;-63
2022/08/25 03:51:47;;;;;;;16.95;10.95;;;20.80;99.90;;;;;;5014853;28;20376;-63
2022/08/25 03:54:18;;;;;;;14.00;10.57;;;20.90;99.90;;;;;;5015342;28;20030;-63
2022/08/25 03:56:44;;;;;;;15.23;10.02;;;20.80;99.90;;;;;;5014915;28;20541;-63
2022/08/25 03:59:11;;;;;;;12.60;9.80;;;20.80;99.90;;;;;;5013173;28;20081;-63
2022/08/25 04:01:38;;;;;;;11.68;9.60;;;20.70;99.90;;;;;;5015008;28;20046;-63
2022/08/25 04:04:05;;;;;;;14.32;10.02;;;20.70;99.90;;;;;;5014037;28;20041;-63
2022/08/25 04:06:31;;;;;;;17.02;9.77;;;20.70;99.90;;;;;;5013468;28;20099;-63
2022/08/25 04:08:57;;;;;;;15.45;10.23;;;20.70;99.90;;;;;;5014769;28;20038;-63
2022/08/25 04:11:24;;;;;;;13.82;8.88;;;20.60;99.90;;;;;;5013003;28;20076;-63
2022/08/25 04:13:52;;;;;;;16.55;9.18;;;20.60;99.90;;;;;;5014741;28;20104;-63
2022/08/25 04:16:20;;;;;;;13.18;9.02;;;20.60;99.90;;;;;;5014715;28;20037;-63
2022/08/25 04:18:48;;;;;;;12.18;8.90;;;20.50;99.90;;;;;;5013100;28;20076;-63
2022/08/25 04:21:15;;;;;;;13.38;8.85;;;20.50;99.90;;;;;;5013718;28;20046;-63
2022/08/25 04:23:42;;;;;;;16.60;9.02;;;20.60;99.90;;;;;;5014742;28;20033;-63
2022/08/25 04:26:33;;;;;;;14.52;8.65;;;20.50;99.90;;;;;;5013495;28;20156;-63
2022/08/25 04:29:01;;;;;;;11.18;8.23;;;20.50;99.90;;;;;;5013438;28;20054;-63
2022/08/25 04:31:28;;;;;;;13.63;8.15;;;20.50;99.90;;;;;;5012268;28;20049;-63
2022/08/25 04:33:54;;;;;;;15.38;8.00;;;20.50;99.90;;;;;;5002071;28;20048;-63
2022/08/25 04:36:20;;;;;;;14.00;8.20;;;20.50;99.90;;;;;;5014393;28;20038;-63
2022/08/25 04:38:48;;;;;;;18.27;7.90;;;20.40;99.90;;;;;;5013949;28;20044;-63
2022/08/25 04:41:17;;;;;;;9.48;7.90;;;20.50;99.90;;;;;;5008416;28;20046;-63
2022/08/25 04:43:43;;;;;;;9.10;7.47;;;20.40;99.90;;;;;;5011552;28;20648;-63
2022/08/25 04:46:13;;;;;;;12.00;7.80;;;20.40;99.90;;;;;;5000303;28;20042;-63
2022/08/25 04:48:40;;;;;;;13.65;7.80;;;20.40;99.90;;;;;;4999926;28;20044;-65
2022/08/25 04:51:12;;;;;;;11.23;6.63;;;20.50;99.90;;;;;;5007008;28;20033;-64
2022/08/25 04:53:38;;;;;;;12.52;6.65;;;20.40;99.90;;;;;;5009286;28;20046;-63
2022/08/25 04:56:06;;;;;;;9.88;6.30;;;20.50;99.90;;;;;;5007941;28;20038;-63
2022/08/25 04:58:31;;;;;;;12.43;6.93;;;20.50;99.90;;;;;;5000932;28;20176;-63
2022/08/25 05:01:02;;;;;;;14.27;6.80;;;20.50;99.90;;;;;;5004948;28;20564;-63
2022/08/25 05:03:27;;;;;;;15.90;6.45;;;20.60;99.90;;;;;;5010351;28;20109;-63
2022/08/25 05:05:53;;;;;;;11.05;6.28;;;20.60;99.90;;;;;;5013760;28;20141;-63
2022/08/25 05:08:18;;;;;;;11.73;6.15;;;20.60;99.90;;;;;;5007185;28;20065;-63
2022/08/25 05:10:44;;;;;;;13.30;6.05;;;20.60;99.90;;;;;;5026582;28;20460;-64
2022/08/25 05:13:10;;;;;;;9.10;5.82;;;20.60;99.90;;;;;;5012993;28;20503;-64
2022/08/25 05:15:50;;;;;;;12.98;5.78;;;20.70;99.90;;;;;;5011469;28;20480;-63
2022/08/25 05:18:18;;;;;;;11.20;5.43;;;20.60;99.90;;;;;;5011826;28;20041;-63
2022/08/25 05:20:43;;;;;;;11.93;5.53;;;20.70;99.90;;;;;;5004642;28;20063;-63
2022/08/25 05:23:09;;;;;;;8.93;5.50;;;20.70;99.90;;;;;;5010525;28;20038;-63
2022/08/25 05:25:35;;;;;;;9.00;5.78;;;20.70;99.90;;;;;;5011539;28;20045;-63
2022/08/25 05:28:01;;;;;;;14.25;5.72;;;20.80;99.90;;;;;;5007882;28;20034;-63
2022/08/25 05:30:27;;;;;;;7.90;5.43;;;20.70;99.90;;;;;;5008022;28;20469;-63
2022/08/25 05:32:52;;;;;;;9.63;5.20;;;20.60;99.90;;;;;;4995615;28;20108;-63
2022/08/25 05:35:19;;;;;;;10.27;5.35;;;20.70;99.90;;;;;;5007894;28;20434;-63
2022/08/25 05:37:45;;;;;;;7.20;5.15;;;20.80;99.90;;;;;;5009096;28;20042;-63
2022/08/25 05:40:10;;;;;;;11.00;5.32;;;20.80;99.90;;;;;;5013367;28;20091;-63
2022/08/25 05:42:36;;;;;;;9.35;6.00;;;20.80;99.90;;;;;;5011542;28;20457;-63
2022/08/25 05:45:03;;;;;;;6.68;4.85;;;20.90;99.90;;;;;;5011091;28;20041;-63
2022/08/25 05:47:29;;;;;;;7.70;4.75;;;20.90;99.90;;;;;;4997699;28;20091;-64
2022/08/25 05:49:55;;;;;;;8.98;4.95;;;21.00;99.90;;;;;;5009417;28;20484;-63
2022/08/25 05:52:20;;;;;;;8.75;5.13;;;21.00;99.90;;;;;;5027693;28;20451;-63
2022/08/25 05:54:46;;;;;;;11.23;4.78;;;21.00;99.90;;;;;;5011033;28;20046;-63
2022/08/25 05:57:11;;;;;;;6.32;5.03;;;21.00;99.90;;;;;;5008477;28;20053;-63
2022/08/25 05:59:37;;;;;;;7.80;4.85;;;21.10;99.90;;;;;;5009951;28;20041;-63
2022/08/25 06:04:47;;;;;;;13.52;5.10;;;21.20;99.90;;;;;;5004216;28;20104;-64
2022/08/25 06:07:12;;;;;;;12.50;4.43;;;21.30;99.90;;;;;;5001509;28;20030;-63
2022/08/25 06:09:39;;;;;;;5.75;4.75;;;21.30;99.90;;;;;;5005059;28;20103;-64
2022/08/25 06:12:06;;;;;;;7.30;5.03;;;21.40;99.90;;;;;;4993504;28;20633;-64
2022/08/25 06:14:32;;;;;;;11.38;4.47;;;21.50;99.90;;;;;;5001995;28;20511;-64
2022/08/25 06:16:59;;;;;;;7.30;5.25;;;21.50;99.90;;;;;;5006797;28;20052;-63
2022/08/25 06:19:25;;;;;;;8.23;5.05;;;21.50;99.90;;;;;;5008202;28;20046;-64
2022/08/25 06:21:55;;;;;;;9.80;4.50;;;21.60;99.90;;;;;;5009605;28;20034;-64
2022/08/25 06:24:21;;;;;;;11.93;4.70;;;21.70;99.90;;;;;;5010298;28;20372;-63
2022/08/25 06:26:47;;;;;;;8.73;4.65;;;21.80;99.90;;;;;;5002180;28;20416;-64
2022/08/25 06:29:13;;;;;;;6.97;4.70;;;21.90;99.90;;;;;;5005295;28;20085;-64
2022/08/25 06:31:38;;;;;;;6.45;4.70;;;22.00;99.90;;;;;;5003254;28;20066;-63
2022/08/25 06:34:05;;;;;;;13.82;4.80;;;22.00;99.90;;;;;;5005474;28;20033;-64
2022/08/25 06:36:31;;;;;;;10.93;5.03;;;22.10;99.90;;;;;;5006706;28;20042;-66
2022/08/25 06:38:56;;;;;;;9.32;4.70;;;22.20;99.90;;;;;;5008572;28;20413;-63
2022/08/25 06:41:22;;;;;;;10.63;5.00;;;22.30;99.90;;;;;;5006501;28;20034;-62
2022/08/25 06:43:47;;;;;;;7.15;4.82;;;22.30;99.90;;;;;;5016331;28;20045;-64
2022/08/25 06:46:20;;;;;;;10.02;4.88;;;22.50;99.90;;;;;;5003891;28;20116;-64
2022/08/25 06:48:46;;;;;;;7.32;5.00;;;22.60;99.90;;;;;;5005166;28;20046;-64
2022/08/25 06:51:14;;;;;;;11.18;4.93;;;22.60;99.90;;;;;;5006350;28;20049;-64
2022/08/25 06:53:41;;;;;;;9.93;4.68;;;22.80;99.90;;;;;;5007212;28;20152;-64
2022/08/25 06:56:08;;;;;;;10.60;4.70;;;22.80;99.90;;;;;;5011056;28;20116;-64
2022/08/25 06:58:33;;;;;;;11.15;4.90;;;22.90;99.90;;;;;;5010842;28;20104;-64
2022/08/25 07:01:13;;;;;;;12.25;4.60;;;23.10;99.90;;;;;;5005783;28;20038;-64
2022/08/25 07:03:40;;;;;;;12.70;4.55;;;23.10;99.90;;;;;;5004650;28;20044;-64
2022/08/25 07:06:06;;;;;;;10.25;4.93;;;23.20;99.90;;;;;;5005283;28;20046;-64
2022/08/25 07:08:32;;;;;;;9.38;4.68;;;23.70;99.90;;;;;;5005815;28;20052;-64
2022/08/25 07:11:07;;;;;;;12.77;4.70;;;23.70;99.90;;;;;;5004606;28;20399;-63
2022/08/25 07:13:34;;;;;;;9.45;4.72;;;23.80;99.90;;;;;;5005796;28;20124;-64
2022/08/25 07:16:00;;;;;;;5.97;4.00;;;23.90;99.90;;;;;;4999407;28;20109;-64
2022/08/25 07:18:25;;;;;;;13.70;4.85;;;23.80;1.00;;;;;;4993510;28;20125;-64
2022/08/25 07:20:52;;;;;;;7.72;4.55;;;23.80;99.90;;;;;;5002125;28;20483;-64
2022/08/25 07:23:18;;;;;;;10.85;4.40;;;23.90;99.90;;;;;;5007072;28;20052;-64
2022/08/25 07:25:44;;;;;;;7.88;4.10;;;24.00;99.90;;;;;;5011742;28;20544;-64
2022/08/25 07:28:10;;;;;;;7.47;3.92;;;24.20;67.50;;;;;;5011714;28;20042;-64
2022/08/25 07:30:36;;;;;;;6.95;4.20;;;24.20;99.90;;;;;;5010436;28;20093;-65
2022/08/25 07:33:02;;;;;;;6.90;4.85;;;24.20;99.90;;;;;;5011772;28;20108;-65
2022/08/25 07:35:31;;;;;;;7.75;4.43;;;24.20;35.70;;;;;;5009351;28;20070;-65
2022/08/25 07:37:56;;;;;;;10.18;4.00;;;24.30;99.90;;;;;;5010811;28;20037;-64
2022/08/25 07:40:25;;;;;;;6.85;4.10;;;24.50;99.90;;;;;;5011887;28;20046;-65
2022/08/25 07:42:52;;;;;;;12.13;4.15;;;24.60;99.90;;;;;;5007858;28;20043;-65
2022/08/25 07:45:19;;;;;;;11.60;3.92;;;24.70;82.00;;;;;;5008152;28;20049;-64
2022/08/25 07:47:45;;;;;;;7.60;4.05;;;25.00;1.00;;;;;;5002157;28;20517;-64
2022/08/25 07:50:12;;;;;;;4.80;3.42;;;24.90;99.90;;;;;;5011573;28;20037;-64
2022/08/25 07:52:39;;;;;;;5.88;3.63;;;25.10;99.90;;;;;;5011466;28;20042;-64
2022/08/25 07:55:06;;;;;;;8.75;3.72;;;25.60;1.00;;;;;;5010896;28;20104;-64
2022/08/25 07:57:33;;;;;;;6.32;3.20;;;26.00;99.90;;;;;;5010729;28;20092;-65
2022/08/25 07:59:59;;;;;;;9.68;3.60;;;26.40;1.00;;;;;;5010438;28;20056;-65
2022/08/25 08:02:25;;;;;;;10.77;3.22;;;26.60;1.00;;;;;;5011269;28;20046;-65
2022/08/25 08:04:52;;;;;;;9.02;3.10;;;26.90;99.90;;;;;;5010709;28;20042;-65
2022/08/25 08:07:24;;;;;;;5.53;3.22;;;27.10;65.80;;;;;;5008296;28;20200;-65
2022/08/25 08:09:51;;;;;;;9.00;3.50;;;27.30;99.90;;;;;;5008026;28;20538;-65
2022/08/25 08:12:17;;;;;;;5.35;3.10;;;27.50;69.30;;;;;;5004546;28;20073;-65
2022/08/25 08:14:43;;;;;;;9.63;3.83;;;27.60;1.00;;;;;;5005795;28;20042;-65
2022/08/25 08:17:10;;;;;;;12.32;3.80;;;27.80;99.90;;;;;;5009043;28;20046;-65
2022/08/25 08:19:36;;;;;;;7.88;3.60;;;28.00;99.90;;;;;;4994431;28;20121;-65
2022/08/25 08:22:03;;;;;;;6.38;3.30;;;28.10;99.90;;;;;;5012442;28;20045;-65
2022/08/25 08:24:30;;;;;;;9.70;3.65;;;28.10;57.80;;;;;;5001515;28;20084;-65
2022/08/25 08:26:56;;;;;;;11.35;3.35;;;28.30;1.00;;;;;;4997572;28;20046;-65
2022/08/25 08:29:22;;;;;;;6.03;3.63;;;28.40;1.00;;;;;;5013147;28;20073;-65
2022/08/25 08:31:48;;;;;;;7.75;3.65;;;28.60;1.00;;;;;;5012967;28;20038;-65
2022/08/25 08:34:13;;;;;;;7.95;3.75;;;28.70;99.90;;;;;;5003606;28;20046;-65
2022/08/25 08:36:39;;;;;;;7.43;3.13;;;28.70;99.90;;;;;;5012135;28;20045;-65
2022/08/25 08:39:05;;;;;;;3.15;2.58;;;28.70;99.90;;;;;;5009807;28;20150;-65
2022/08/25 08:44:46;;;;;;;5.85;2.83;;;28.90;99.90;;;;;;5004600;28;20045;-65
2022/08/25 08:47:15;;;;;;;6.95;2.85;;;29.00;99.90;;;;;;5013705;28;20073;-65
2022/08/25 08:49:59;;;;;;;6.60;2.83;;;29.00;99.90;;;;;;5012343;28;20049;-65
2022/08/25 08:52:48;;;;;;;6.57;3.03;;;29.20;95.50;;;;;;5012439;28;20446;-65
2022/08/25 08:55:37;;;;;;;8.50;3.13;;;29.30;61.40;;;;;;5012514;28;20084;-65
2022/08/25 08:58:09;;;;;;;10.57;3.42;;;29.30;13.70;;;;;;4994596;28;20500;-65
2022/08/25 09:00:40;;;;;;;9.27;3.28;;;29.30;1.40;;;;;;4998720;28;20044;-65
2022/08/25 09:03:10;;;;;;;6.18;2.85;;;29.50;1.00;;;;;;5012593;28;20049;-65
2022/08/25 09:05:53;;;;;;;5.78;3.13;;;29.50;1.00;;;;;;5010561;28;20100;-65
2022/08/25 09:08:19;;;;;;;9.27;2.90;;;29.60;1.00;;;;;;5007166;28;20087;-65
2022/08/25 09:11:03;;;;;;;13.05;3.47;;;29.50;1.00;;;;;;5007243;28;20082;-65
2022/08/25 09:14:06;;;;;;;7.95;3.00;;;29.60;1.00;;;;;;5012010;28;20080;-65
2022/08/25 09:16:55;;;;;;;6.40;3.15;;;29.80;1.00;;;;;;5013885;28;20404;-65
2022/08/25 09:20:01;;;;;;;7.68;2.40;;;29.90;1.00;;;;;;5012477;28;20037;-65
2022/08/25 09:22:49;;;;;;;5.37;2.60;;;30.20;1.00;;;;;;5006689;28;20551;-65
2022/08/25 09:25:39;;;;;;;8.55;3.20;;;30.20;1.00;;;;;;5009580;28;20389;-65
2022/08/25 09:28:19;;;;;;;8.57;2.83;;;30.30;1.00;;;;;;4998693;28;20049;-65
2022/08/25 09:31:03;;;;;;;6.25;2.78;;;30.40;1.00;;;;;;5014853;28;20100;-65
2022/08/25 09:33:33;;;;;;;8.00;2.40;;;30.40;1.00;;;;;;5012107;28;20048;-65
2022/08/25 09:35:59;;;;;;;7.65;2.30;;;30.70;1.00;;;;;;5013389;28;20037;-65
2022/08/25 09:38:27;;;;;;;7.05;2.20;;;30.70;1.00;;;;;;5011693;28;20041;-65
2022/08/25 09:40:57;;;;;;;7.40;2.15;;;30.60;99.90;;;;;;5006645;28;20117;-65
2022/08/25 09:43:35;;;;;;;6.35;2.10;;;30.40;99.90;;;;;;4993721;28;20052;-65
2022/08/25 09:46:04;;;;;;;6.60;2.40;;;30.40;99.90;;;;;;5007353;28;20053;-65
2022/08/25 09:48:41;;;;;;;5.43;1.92;;;30.40;99.90;;;;;;5013104;28;20468;-65
2022/08/25 09:51:10;;;;;;;6.72;2.30;;;30.30;99.90;;;;;;5012623;28;20046;-65
2022/08/25 09:53:41;;;;;;;9.68;2.30;;;30.40;99.90;;;;;;5011241;28;20045;-65
2022/08/25 09:56:09;;;;;;;3.17;2.10;;;30.40;99.90;;;;;;5004402;28;20042;-65
2022/08/25 09:58:34;;;;;;;13.07;2.65;;;30.50;99.90;;;;;;4993648;28;20039;-65
2022/08/25 10:01:10;;;;;;;5.28;2.00;;;30.50;99.90;;;;;;5005460;28;20054;-65
2022/08/25 10:03:35;;;;;;;3.17;1.60;;;30.60;99.90;;;;;;5012275;28;20488;-65
2022/08/25 10:06:07;;;;;;;6.53;2.03;;;30.70;99.90;;;;;;5012725;28;20103;-65
2022/08/25 10:08:44;;;;;;;11.68;2.40;;;30.70;99.90;;;;;;5011600;28;20439;-65
2022/08/25 10:11:29;;;;;;;4.78;1.88;;;30.70;99.90;;;;;;4998195;28;20081;-65
2022/08/25 10:14:12;;;;;;;2.78;1.83;;;30.90;99.90;;;;;;4993052;28;20061;-65
2022/08/25 10:16:38;;;;;;;4.05;2.00;;;31.00;99.90;;;;;;5009416;28;20128;-65
2022/08/25 10:19:09;;;;;;;4.80;2.25;;;31.10;99.90;;;;;;4993251;28;20034;-65
2022/08/25 10:21:37;;;;;;;4.32;1.60;;;31.20;99.90;;;;;;5010559;28;20542;-65
2022/08/25 10:24:04;;;;;;;8.40;2.03;;;31.10;99.90;;;;;;5010981;28;20048;-65
2022/08/25 10:26:48;;;;;;;3.33;1.80;;;31.00;99.90;;;;;;4994934;28;20100;-65
2022/08/25 10:29:26;;;;;;;3.22;1.50;;;31.00;99.90;;;;;;5001192;28;20398;-65
2022/08/25 10:31:55;;;;;;;3.55;1.70;;;31.00;99.90;;;;;;4994965;28;20068;-65
2022/08/25 10:34:44;;;;;;;2.45;1.50;;;31.00;99.90;;;;;;5010686;28;20037;-65
2022/08/25 10:37:14;;;;;;;3.05;1.90;;;31.20;99.90;;;;;;5010144;28;20125;-65
2022/08/25 10:39:56;;;;;;;5.78;1.77;;;31.30;99.90;;;;;;5007410;28;20117;-65
2022/08/25 10:42:42;;;;;;;3.95;1.83;;;31.30;99.90;;;;;;5000811;28;20499;-65
2022/08/25 10:45:43;;;;;;;5.72;1.83;;;31.20;99.90;;;;;;5010174;28;20621;-65
2022/08/25 10:48:18;;;;;;;8.07;1.90;;;31.40;99.90;;;;;;5012197;28;20042;-65
2022/08/25 10:50:46;;;;;;;5.80;2.13;;;31.60;99.90;;;;;;5006826;28;20052;-65
2022/08/25 10:53:42;;;;;;;3.30;1.60;;;31.80;99.90;;;;;;5005420;28;20281;-65
2022/08/25 10:56:21;;;;;;;6.40;1.83;;;31.80;99.90;;;;;;5010073;28;20074;-65
2022/08/25 10:59:14;;;;;;;3.55;1.55;;;31.90;99.90;;;;;;5011771;28;20038;-65
2022/08/25 11:02:10;;;;;;;5.70;1.98;;;32.00;99.90;;;;;;5012231;28;20038;-65
2022/08/25 11:04:54;;;;;;;4.07;1.90;;;32.00;99.90;;;;;;5008995;28;20041;-65
2022/08/25 11:07:27;;;;;;;4.85;1.80;;;32.00;99.90;;;;;;5010390;28;20041;-65
2022/08/25 11:09:58;;;;;;;9.30;2.00;;;32.10;99.90;;;;;;5011863;28;20046;-65
2022/08/25 11:12:37;;;;;;;3.60;1.52;;;32.10;99.90;;;;;;5007288;28;20084;-65
2022/08/25 11:15:11;;;;;;;2.25;1.50;;;31.90;99.90;;;;;;4991063;28;20035;-65
2022/08/25 11:17:41;;;;;;;4.70;1.65;;;31.70;99.90;;;;;;4994723;28;20485;-65
2022/08/25 11:20:13;;;;;;;2.55;1.50;;;31.50;99.90;;;;;;5011325;28;20041;-65
2022/08/25 11:22:41;;;;;;;5.15;1.73;;;31.40;99.90;;;;;;5010278;28;20522;-65
2022/08/25 11:25:18;;;;;;;6.57;1.83;;;31.30;99.90;;;;;;5006958;28;20038;-65
2022/08/25 11:27:52;;;;;;;2.42;1.35;;;31.10;99.90;;;;;;4992986;28;20119;-65
2022/08/25 11:30:18;;;;;;;8.05;1.73;;;31.20;99.90;;;;;;5010090;28;20042;-65
2022/08/25 11:32:49;;;;;;;2.45;1.75;;;31.20;99.90;;;;;;5011294;28;20471;-65
2022/08/25 11:35:24;;;;;;;6.97;2.00;;;31.20;99.90;;;;;;5011023;28;20038;-65
2022/08/25 11:38:08;;;;;;;3.25;1.80;;;31.40;99.90;;;;;;5026770;28;20715;-65
2022/08/25 11:40:56;;;;;;;5.32;1.90;;;31.10;99.90;;;;;;5008770;28;20042;-65
2022/08/25 11:43:33;;;;;;;5.03;2.08;;;31.20;99.90;;;;;;4995344;28;20042;-65
2022/08/25 11:46:19;;;;;;;5.45;2.20;;;31.20;99.90;;;;;;4990864;28;20066;-65
2022/08/25 11:49:20;;;;;;;4.45;1.95;;;31.20;99.90;;;;;;4993010;28;20042;-65
2022/08/25 11:51:47;;;;;;;4.03;1.67;;;31.20;99.90;;;;;;5010242;28;20089;-65
2022/08/25 11:54:24;;;;;;;5.53;1.88;;;31.10;99.90;;;;;;5015179;28;20048;-65
2022/08/25 11:57:02;;;;;;;4.20;1.73;;;31.10;99.90;;;;;;5004164;28;20053;-65
2022/08/25 11:59:50;;;;;;;2.80;1.70;;;31.10;99.90;;;;;;4996786;28;20465;-65
2022/08/25 12:02:36;;;;;;;5.78;1.83;;;31.10;99.90;;;;;;5001977;28;20037;-65
2022/08/25 12:05:27;;;;;;;7.47;1.92;;;31.10;99.90;;;;;;5013858;28;20033;-65
2022/08/25 12:08:37;;;;;;;3.33;1.95;;;31.20;99.90;;;;;;5006958;28;20050;-65
2022/08/25 12:10:57;;;;;;;4.75;1.80;;;31.10;99.90;;;;;;5012608;28;20057;-65
2022/08/25 12:13:40;;;;;;;4.40;1.90;;;31.00;99.90;;;;;;5013176;28;20426;-65
2022/08/25 12:16:26;;;;;;;3.25;2.00;;;31.10;99.90;;;;;;5014497;28;20049;-65
2022/08/25 12:18:52;;;;;;;3.40;1.75;;;31.20;99.90;;;;;;5008732;28;20116;-65
2022/08/25 12:21:29;;;;;;;6.43;2.28;;;31.10;99.90;;;;;;5011498;28;20430;-65
2022/08/25 12:24:07;;;;;;;2.65;1.65;;;31.00;99.90;;;;;;5013084;28;20372;-65
2022/08/25 12:26:55;;;;;;;4.97;1.80;;;31.00;99.90;;;;;;4997107;28;20049;-65
2022/08/25 12:29:40;;;;;;;8.25;2.15;;;31.00;99.90;;;;;;5011983;28;20096;-65
2022/08/25 12:32:29;;;;;;;5.25;2.00;;;31.10;99.90;;;;;;5014655;28;20041;-65
2022/08/25 12:35:13;;;;;;;3.65;1.90;;;31.20;99.90;;;;;;5004311;28;20049;-65
2022/08/25 12:38:12;;;;;;;5.50;2.00;;;31.20;99.90;;;;;;5006377;28;20038;-65
2022/08/25 12:40:57;;;;;;;4.70;1.70;;;31.20;99.90;;;;;;4996176;28;20129;-65
2022/08/25 12:43:31;;;;;;;8.20;2.00;;;31.20;99.90;;;;;;4996829;28;20121;-65
2022/08/25 12:46:18;;;;;;;3.03;2.00;;;31.20;99.90;;;;;;5012921;28;20096;-65
2022/08/25 12:49:11;;;;;;;3.72;1.98;;;31.00;99.90;;;;;;5012893;28;20084;-65
2022/08/25 12:51:42;;;;;;;2.90;1.85;;;31.00;99.90;;;;;;5005101;28;20176;-65
2022/08/25 12:54:21;;;;;;;5.43;2.10;;;31.00;99.90;;;;;;5007766;28;20037;-65
2022/08/25 12:56:53;;;;;;;3.60;2.13;;;31.10;99.90;;;;;;5008735;28;20042;-65
2022/08/25 12:59:35;;;;;;;4.22;2.00;;;31.10;99.90;;;;;;5007377;28;20116;-65
2022/08/25 13:02:35;;;;;;;3.20;1.85;;;31.10;99.90;;;;;;5005814;28;20096;-65
2022/08/25 13:05:40;;;;;;;11.32;2.50;;;31.20;99.90;;;;;;4999068;28;20045;-65
2022/08/25 13:08:55;;;;;;;2.77;2.00;;;31.10;99.90;;;;;;5010018;28;20076;-65
2022/08/25 13:11:29;;;;;;;3.45;1.90;;;31.10;99.90;;;;;;5003620;28;20045;-66